Time;durP1;ratioP1;P1;durP2;ratioP2;P2;SDS_P1;SDS_P2;PMS_P1;PMS_P2;Temp;Humidity;BMP_temperature;BMP_pressure;BME280_temperature;BME280_humidity;BME280_pressure;Samples;Min_cycle;Max_cycle;Signal;HPM_P1;HPM_P2
2022/12/17 13:08:07;;;;;;;28.23;16.48;;;16.40;70.80;;;18.11;37.42;99231.00;5052810;28;20041;-70
2022/12/17 13:10:34;;;;;;;28.02;16.48;;;16.40;70.40;;;18.13;37.09;99237.00;5067918;28;20429;-70
2022/12/17 13:13:33;;;;;;;32.83;17.55;;;16.50;69.50;;;18.06;37.17;99244.88;5023462;28;20491;-70
2022/12/17 13:16:32;;;;;;;32.47;18.33;;;16.40;69.20;;;18.07;37.06;99241.81;5041111;28;20048;-71
2022/12/17 13:19:19;;;;;;;31.52;18.65;;;16.30;69.50;;;18.06;37.07;99247.63;5055187;28;20041;-70
2022/12/17 13:21:46;;;;;;;31.65;19.48;;;16.30;69.70;;;18.00;37.28;99239.50;5050333;28;20040;-70
2022/12/17 13:24:24;;;;;;;29.73;17.73;;;16.30;70.20;;;17.99;37.08;99245.31;5046858;28;20121;-70
2022/12/17 13:26:50;;;;;;;28.23;18.88;;;16.40;69.30;;;17.97;37.13;99242.06;5033970;28;20086;-70
2022/12/17 13:29:36;;;;;;;33.17;19.33;;;16.40;68.80;;;17.95;36.60;99249.81;5033130;28;20489;-71
2022/12/17 13:32:29;;;;;;;26.77;17.27;;;16.40;68.50;;;17.91;36.60;99249.63;5035415;28;20108;-71
2022/12/17 13:35:29;;;;;;;34.25;20.10;;;16.40;68.20;;;17.97;36.51;99262.09;5016631;28;20493;-71
2022/12/17 13:38:19;;;;;;;28.35;17.38;;;16.20;68.60;;;17.91;36.74;99262.50;5060690;28;20048;-71
2022/12/17 13:41:11;;;;;;;28.25;17.15;;;16.30;68.70;;;17.94;36.65;99273.69;5019292;28;20630;-71
2022/12/17 13:44:02;;;;;;;29.13;17.27;;;16.30;68.70;;;17.96;37.25;99281.59;5051200;28;20093;-71
2022/12/17 13:46:49;;;;;;;23.77;16.67;;;16.30;69.70;;;17.97;37.58;99278.56;5034144;28;20044;-71
2022/12/17 13:49:23;;;;;;;29.05;17.85;;;16.30;70.20;;;17.98;37.09;99288.41;5052237;28;20053;-71
2022/12/17 13:52:24;;;;;;;28.02;17.08;;;16.30;69.90;;;17.95;37.23;99288.22;5050562;28;20082;-71
2022/12/17 13:54:50;;;;;;;27.50;17.90;;;16.30;69.80;;;17.89;37.21;99294.97;5040652;28;20055;-71
2022/12/17 13:57:22;;;;;;;31.80;19.58;;;16.10;69.60;;;17.91;37.18;99296.28;5055297;28;20072;-71
2022/12/17 13:59:57;;;;;;;31.77;18.13;;;16.20;69.50;;;17.80;37.17;99300.38;5036690;28;20520;-71
2022/12/17 14:02:23;;;;;;;27.75;17.52;;;16.20;69.50;;;17.90;37.28;99311.09;5031236;28;20336;-71
2022/12/17 14:04:54;;;;;;;33.80;18.70;;;16.20;70.20;;;17.92;37.41;99308.88;5036554;28;20048;-71
2022/12/17 14:07:20;;;;;;;31.42;18.40;;;16.10;70.30;;;17.90;37.77;99316.59;5027344;28;20044;-71
2022/12/17 14:09:47;;;;;;;28.77;17.58;;;16.20;70.80;;;17.89;37.44;99323.22;5041271;28;20040;-71
2022/12/17 14:12:24;;;;;;;31.48;18.65;;;16.20;70.00;;;17.79;37.50;99329.75;5029633;28;20788;-71
2022/12/17 14:14:58;;;;;;;28.25;18.55;;;16.10;70.00;;;17.83;37.36;99329.94;5028745;28;20043;-71
2022/12/17 14:17:45;;;;;;;36.75;18.90;;;16.10;69.90;;;17.78;37.49;99327.25;5031042;28;20510;-71
2022/12/17 14:20:23;;;;;;;28.55;17.67;;;16.10;70.10;;;17.90;37.61;99330.31;5027864;28;20036;-71
2022/12/17 14:22:52;;;;;;;29.02;18.42;;;16.00;70.50;;;17.85;37.75;99333.19;5044759;28;20044;-71
2022/12/17 14:25:23;;;;;;;29.52;17.63;;;16.00;70.80;;;17.81;37.40;99340.41;5043895;28;20435;-71
2022/12/17 14:28:00;;;;;;;28.70;17.90;;;16.10;70.50;;;17.78;37.56;99341.81;5041977;28;20040;-70
2022/12/17 14:30:39;;;;;;;31.27;18.05;;;16.00;70.20;;;17.75;37.64;99344.34;5056416;28;20482;-70
2022/12/17 14:33:30;;;;;;;25.15;17.65;;;16.00;70.10;;;17.79;37.08;99359.09;5052700;28;20036;-71
2022/12/17 14:35:58;;;;;;;31.30;19.15;;;16.00;69.80;;;17.84;37.83;99352.72;5045051;28;20040;-71
2022/12/17 14:38:24;;;;;;;31.48;19.50;;;16.00;70.40;;;17.86;37.82;99355.94;5024774;28;20107;-71
2022/12/17 14:40:51;;;;;;;30.63;18.45;;;16.10;70.80;;;17.75;37.73;99364.38;5025484;28;20393;-71
2022/12/17 14:43:19;;;;;;;30.35;18.83;;;16.00;70.50;;;17.67;37.85;99367.84;5059325;28;20464;-71
2022/12/17 14:51:26;;;;;;;31.15;18.27;;;16.00;69.80;;;17.73;37.76;99376.75;5043410;28;20074;-71
2022/12/17 14:53:52;;;;;;;30.02;18.17;;;16.00;70.40;;;17.78;37.79;99379.41;5057586;28;20041;-71
2022/12/17 14:56:21;;;;;;;31.08;18.95;;;16.10;70.60;;;17.78;37.76;99384.88;5062869;28;20136;-71
2022/12/17 14:58:47;;;;;;;31.83;19.50;;;16.00;70.60;;;17.69;37.59;99393.03;5028355;28;20040;-71
2022/12/17 15:01:14;;;;;;;33.47;19.52;;;16.10;70.40;;;17.66;37.73;99392.84;5038243;28;20048;-70
2022/12/17 15:03:42;;;;;;;31.40;18.70;;;16.10;70.20;;;17.66;37.38;99396.41;5022645;28;20047;-71
2022/12/17 15:06:10;;;;;;;30.25;17.73;;;16.00;70.00;;;17.66;37.46;99403.81;5035805;28;20506;-70
2022/12/17 15:08:40;;;;;;;27.92;17.83;;;16.00;70.10;;;17.70;37.87;99400.13;5040170;28;20072;-71
2022/12/17 15:11:13;;;;;;;29.30;18.30;;;16.00;70.60;;;17.74;37.87;99405.84;5022235;28;20093;-71
2022/12/17 15:13:39;;;;;;;26.77;18.85;;;16.00;70.60;;;17.71;37.78;99406.47;5043792;28;20404;-71
2022/12/17 15:16:06;;;;;;;25.48;17.92;;;16.10;70.50;;;17.66;37.83;99412.06;5051892;28;20036;-71
2022/12/17 15:18:32;;;;;;;28.38;19.02;;;16.10;70.30;;;17.62;37.61;99419.25;5051671;28;20115;-71
2022/12/17 15:20:59;;;;;;;37.35;20.45;;;16.00;70.10;;;17.59;37.55;99426.16;5066468;28;20041;-71
2022/12/17 15:23:25;;;;;;;33.83;19.27;;;16.00;70.10;;;17.60;38.06;99418.75;5048799;28;20655;-71
2022/12/17 15:25:52;;;;;;;27.98;17.88;;;16.00;70.40;;;17.68;38.04;99429.00;5039372;28;20047;-71
2022/12/17 15:28:20;;;;;;;33.22;20.08;;;15.90;70.90;;;17.64;38.34;99423.31;5037738;28;20086;-71
2022/12/17 15:30:47;;;;;;;30.77;18.85;;;15.90;71.20;;;17.61;37.70;99436.84;5024899;28;20514;-70
2022/12/17 15:33:13;;;;;;;33.30;20.65;;;15.90;70.60;;;17.55;37.56;99436.94;5041586;28;20037;-70
2022/12/17 15:35:39;;;;;;;34.15;19.17;;;15.90;70.50;;;17.53;37.73;99433.69;5037164;28;20530;-70
2022/12/17 15:38:05;;;;;;;31.67;17.85;;;15.90;70.30;;;17.57;37.62;99444.84;5020839;28;20052;-70
2022/12/17 15:40:32;;;;;;;30.08;18.90;;;15.90;70.30;;;17.60;38.17;99435.19;5035836;28;20408;-70
2022/12/17 15:43:10;;;;;;;44.25;20.60;;;15.80;71.10;;;17.63;38.21;99438.16;5036448;28;20538;-70
2022/12/17 15:45:44;;;;;;;32.03;19.77;;;15.90;71.20;;;17.57;38.14;99442.91;5055649;28;20635;-70
2022/12/17 15:48:12;;;;;;;31.20;19.88;;;15.90;70.90;;;17.60;37.81;99446.19;5053281;28;20036;-70
2022/12/17 15:50:38;;;;;;;29.98;19.60;;;15.90;70.50;;;17.55;37.59;99442.44;5019836;28;20530;-71
2022/12/17 15:53:04;;;;;;;32.25;19.63;;;15.80;70.50;;;17.52;37.55;99451.25;5051198;28;20044;-71
2022/12/17 15:55:31;;;;;;;30.83;19.88;;;15.80;70.40;;;17.55;38.03;99452.56;5055625;28;20044;-70
2022/12/17 15:57:57;;;;;;;31.95;20.33;;;15.80;70.60;;;17.65;37.98;99457.06;5021220;28;20045;-70
2022/12/17 16:00:23;;;;;;;27.80;18.17;;;15.80;71.10;;;17.66;38.16;99464.19;5041454;28;20472;-70
2022/12/17 16:02:49;;;;;;;33.35;19.70;;;15.80;71.30;;;17.63;37.76;99462.84;5035466;28;20036;-70
2022/12/17 16:05:17;;;;;;;37.78;20.60;;;15.90;70.60;;;17.57;37.58;99467.59;5054992;28;20117;-71
2022/12/17 16:07:43;;;;;;;25.75;17.52;;;15.90;70.50;;;17.53;38.00;99466.59;5040793;28;20415;-71
2022/12/17 16:10:10;;;;;;;34.30;19.88;;;15.90;70.50;;;17.62;37.22;99479.59;5052659;28;20040;-71
2022/12/17 16:12:37;;;;;;;31.52;18.23;;;15.80;70.20;;;17.68;37.72;99483.88;5021422;28;20102;-71
2022/12/17 16:15:04;;;;;;;29.05;18.00;;;15.80;71.10;;;17.70;38.04;99487.94;5037387;28;20029;-71
2022/12/17 16:17:30;;;;;;;28.77;18.30;;;15.80;71.50;;;17.70;38.07;99487.13;5052527;28;20094;-71
2022/12/17 16:19:57;;;;;;;35.13;18.65;;;15.80;71.60;;;17.70;37.51;99487.13;5037695;28;20044;-71
2022/12/17 16:22:22;;;;;;;31.35;20.02;;;15.80;70.90;;;17.78;37.48;99489.16;5037692;28;20410;-71
2022/12/17 16:24:49;;;;;;;28.15;20.23;;;15.80;70.60;;;17.73;37.48;99487.34;5053664;28;20041;-72
2022/12/17 16:27:16;;;;;;;28.88;18.90;;;15.80;70.30;;;17.77;37.01;99495.78;5037114;28;20519;-71
2022/12/17 16:29:44;;;;;;;34.58;19.10;;;15.80;70.30;;;17.77;37.75;99498.53;5039002;28;20040;-71
2022/12/17 16:32:10;;;;;;;32.28;20.58;;;15.90;71.10;;;17.74;37.88;99505.44;5053327;28;20484;-71
2022/12/17 16:34:36;;;;;;;31.45;19.48;;;15.90;71.20;;;17.79;37.58;99501.78;5028472;28;20044;-71
2022/12/17 16:37:05;;;;;;;34.38;20.70;;;15.90;70.70;;;17.85;37.21;99510.75;5055038;28;20037;-71
2022/12/17 16:39:31;;;;;;;31.77;20.83;;;16.00;70.50;;;17.85;37.29;99518.97;5038645;28;20036;-71
2022/12/17 16:41:57;;;;;;;35.60;21.67;;;15.90;70.40;;;17.83;37.52;99513.78;5036646;28;20064;-71
2022/12/17 16:44:23;;;;;;;31.77;20.20;;;16.00;70.40;;;17.89;37.33;99518.06;5071116;28;20055;-71
2022/12/17 16:46:51;;;;;;;34.03;21.25;;;15.90;70.50;;;17.93;37.65;99516.31;5035143;28;20048;-71
2022/12/17 16:49:22;;;;;;;31.15;19.95;;;15.90;71.10;;;17.91;37.90;99515.84;5045290;28;20039;-71
2022/12/17 16:51:49;;;;;;;34.63;20.42;;;16.00;71.30;;;17.97;37.32;99522.84;5021497;28;20047;-71
2022/12/17 16:54:18;;;;;;;35.22;21.30;;;16.00;70.70;;;17.95;37.16;99521.53;5054258;28;20046;-71
2022/12/17 16:56:44;;;;;;;32.00;20.10;;;16.00;70.40;;;17.97;37.39;99520.09;5040006;28;20119;-71
2022/12/17 16:59:11;;;;;;;33.90;20.08;;;16.10;70.20;;;17.99;36.82;99537.09;5006319;28;20041;-71
2022/12/17 17:01:38;;;;;;;27.95;19.35;;;16.10;69.90;;;18.06;37.40;99542.16;5034876;28;20044;-71
2022/12/17 17:04:06;;;;;;;32.50;21.27;;;16.10;70.50;;;18.05;37.48;99532.31;5032095;28;20415;-71
2022/12/17 17:06:36;;;;;;;36.00;20.15;;;16.10;70.80;;;18.08;37.30;99536.38;4984082;28;20080;-71
2022/12/17 17:09:03;;;;;;;35.17;20.98;;;16.10;70.80;;;18.14;36.87;99549.69;5024215;28;20041;-71
2022/12/17 17:11:29;;;;;;;33.92;20.35;;;16.20;70.50;;;18.11;36.98;99554.97;5006133;28;20150;-71
2022/12/17 17:13:55;;;;;;;34.75;19.85;;;16.20;70.40;;;18.09;36.93;99552.53;5030044;28;20487;-71
2022/12/17 17:16:23;;;;;;;36.00;21.63;;;16.20;70.10;;;18.16;37.33;99561.16;5025101;28;20116;-71
2022/12/17 17:18:49;;;;;;;30.85;20.92;;;16.20;70.20;;;18.12;37.15;99565.66;5032735;28;20116;-70
2022/12/17 17:21:18;;;;;;;36.42;21.42;;;16.10;70.50;;;18.19;37.43;99562.50;5016995;28;20125;-70
2022/12/17 17:23:45;;;;;;;31.52;20.00;;;16.20;71.10;;;18.19;37.31;99565.22;5058774;28;20535;-70
2022/12/17 17:26:12;;;;;;;40.72;22.25;;;16.10;70.60;;;18.22;36.98;99572.88;5027400;28;20044;-70
2022/12/17 17:28:38;;;;;;;36.03;20.00;;;16.30;70.20;;;18.19;36.99;99567.97;5030407;28;20044;-70
2022/12/17 17:31:07;;;;;;;36.17;22.42;;;16.20;70.00;;;18.23;36.73;99571.75;5031623;28;20036;-70
2022/12/17 17:33:35;;;;;;;37.90;22.42;;;16.30;70.00;;;18.21;37.10;99574.78;5038662;28;20451;-70
2022/12/17 17:36:06;;;;;;;34.95;21.60;;;16.20;70.30;;;18.25;36.98;99575.00;5049277;28;20115;-70
2022/12/17 17:38:36;;;;;;;31.27;20.50;;;16.20;70.60;;;18.24;37.19;99576.13;5065923;28;20415;-71
2022/12/17 17:41:03;;;;;;;36.10;20.95;;;16.20;70.80;;;18.48;38.01;99588.84;5052940;28;20087;-70
2022/12/17 17:43:30;;;;;;;38.53;22.23;;;16.60;72.00;;;18.51;37.70;99599.22;5069342;28;20385;-70
2022/12/17 17:46:03;;;;;;;30.95;20.13;;;16.80;70.90;;;18.46;37.41;99596.56;5068217;28;20053;-70
2022/12/17 17:48:32;;;;;;;40.55;21.77;;;16.70;70.70;;;18.42;37.48;99608.16;5047321;28;20079;-70
2022/12/17 17:51:03;;;;;;;29.58;19.65;;;16.60;70.60;;;18.43;37.69;99607.03;5029006;28;20484;-70
2022/12/17 17:53:29;;;;;;;;;;;16.60;71.00;;;18.41;37.89;99605.72;5053858;28;20455;-70
2022/12/17 17:56:05;;;;;;;31.77;20.52;;;16.50;71.50;;;18.42;37.41;99610.13;5046818;28;19935;-70
2022/12/17 17:58:31;;;;;;;34.13;20.08;;;16.40;71.40;;;18.38;37.46;99611.84;5034690;28;20438;-70
2022/12/17 18:00:57;;;;;;;39.67;21.70;;;16.40;71.00;;;18.33;37.53;99622.91;5038314;28;20047;-70
2022/12/17 18:03:24;;;;;;;35.92;20.08;;;16.50;70.80;;;18.38;37.22;99622.81;5026522;28;20049;-70
2022/12/17 18:05:49;;;;;;;37.70;21.02;;;16.50;70.60;;;18.39;37.41;99629.94;5073844;28;20049;-70
2022/12/17 18:08:19;;;;;;;35.70;21.48;;;16.40;70.90;;;18.42;37.33;99624.66;5070592;28;20040;-70
2022/12/17 18:10:55;;;;;;;37.40;21.90;;;16.40;71.20;;;18.38;37.62;99629.13;5071641;28;20052;-70
2022/12/17 18:16:07;;;;;;;36.03;21.80;;;16.40;71.10;;;18.42;37.16;99640.31;5053702;28;20499;-70
2022/12/17 18:18:33;;;;;;;33.55;20.30;;;16.40;70.80;;;18.40;37.03;99648.06;5035306;28;20052;-71
2022/12/17 18:21:05;;;;;;;33.00;21.25;;;16.50;70.60;;;18.37;37.27;99660.47;5036220;28;20041;-71
2022/12/17 18:23:31;;;;;;;35.45;21.25;;;16.50;70.30;;;18.41;37.57;99653.22;5052758;28;20049;-70
2022/12/17 18:26:09;;;;;;;36.55;20.90;;;16.50;70.80;;;18.41;37.42;99661.47;5047379;28;20609;-71
2022/12/17 18:28:35;;;;;;;31.75;22.05;;;16.50;71.00;;;18.42;37.27;99662.31;5055198;28;20052;-71
2022/12/17 18:31:10;;;;;;;33.92;21.40;;;16.50;71.60;;;18.39;36.99;99662.88;5050400;28;20045;-71
2022/12/17 18:33:38;;;;;;;34.70;21.52;;;16.50;70.50;;;18.38;37.31;99669.50;5053334;28;20649;-71
2022/12/17 18:36:12;;;;;;;45.03;21.70;;;16.60;70.10;;;18.41;36.78;99671.66;5025486;28;20067;-71
2022/12/17 18:38:38;;;;;;;31.73;20.67;;;16.60;70.80;;;18.45;37.26;99683.66;5021016;28;20048;-71
2022/12/17 18:44:04;;;;;;;44.03;21.58;;;16.60;70.60;;;18.38;37.20;99695.03;5053951;28;20040;-71
2022/12/17 18:46:30;;;;;;;35.78;22.45;;;16.60;70.70;;;18.38;37.29;99695.03;5021062;28;20064;-71
2022/12/17 18:48:58;;;;;;;34.35;21.23;;;16.70;70.10;;;18.36;36.98;99690.97;5034896;28;20562;-71
2022/12/17 18:51:24;;;;;;;37.97;23.15;;;16.60;70.10;;;18.39;36.94;99702.19;5011526;28;20033;-71
2022/12/17 18:53:50;;;;;;;37.05;22.63;;;16.60;69.80;;;18.39;37.17;99699.44;5048480;28;20032;-70
2022/12/17 18:56:16;;;;;;;36.05;22.83;;;16.50;70.10;;;18.46;36.96;99707.25;5051495;28;20048;-70
2022/12/17 18:58:43;;;;;;;35.30;21.50;;;16.50;70.60;;;18.42;37.35;99704.31;5034667;28;20041;-71
2022/12/17 19:01:29;;;;;;;37.22;21.77;;;16.50;70.90;;;18.40;37.23;99703.00;5042422;28;20049;-70
2022/12/17 19:03:55;;;;;;;35.70;22.63;;;16.60;70.50;;;18.39;37.13;99709.59;5019759;28;20079;-70
2022/12/17 19:06:23;;;;;;;40.65;22.50;;;16.60;70.20;;;18.37;37.04;99706.34;5073466;28;20123;-70
2022/12/17 19:08:50;;;;;;;32.95;22.08;;;16.50;69.90;;;18.37;36.95;99707.16;5056292;28;20041;-70
2022/12/17 19:11:20;;;;;;;38.03;21.48;;;16.50;69.90;;;18.38;37.43;99722.50;5023195;28;20044;-71
2022/12/17 19:13:48;;;;;;;40.33;22.27;;;16.40;70.50;;;18.36;37.57;99719.25;5037968;28;20079;-70
2022/12/17 19:16:21;;;;;;;38.63;21.73;;;16.40;70.90;;;18.37;37.62;99722.81;5023890;28;20246;-70
2022/12/17 19:19:00;;;;;;;38.03;22.33;;;16.40;70.80;;;18.34;37.13;99723.41;5038933;28;20050;-70
2022/12/17 19:21:26;;;;;;;39.13;23.42;;;16.50;70.40;;;18.36;37.07;99730.22;5036063;28;20044;-70
2022/12/17 19:23:57;;;;;;;38.00;21.25;;;16.60;70.10;;;18.35;36.92;99738.78;5021770;28;20051;-70
2022/12/17 19:26:23;;;;;;;37.33;22.60;;;16.60;69.80;;;18.33;37.07;99735.53;5021126;28;20119;-71
2022/12/17 19:28:51;;;;;;;33.47;20.45;;;16.50;70.10;;;18.33;37.49;99747.31;5041404;28;20176;-73
2022/12/17 19:31:18;;;;;;;38.92;22.35;;;16.50;70.60;;;18.37;37.42;99740.13;5039463;28;20047;-71
2022/12/17 19:33:44;;;;;;;31.17;20.08;;;16.50;70.80;;;18.34;37.39;99748.97;5039213;28;20040;-70
2022/12/17 19:36:16;;;;;;;33.25;22.13;;;16.50;70.50;;;18.32;37.18;99756.69;5070883;28;20121;-70
2022/12/17 19:38:45;;;;;;;35.20;21.55;;;16.50;70.50;;;18.31;37.14;99746.81;5021169;28;20527;-71
2022/12/17 19:41:13;;;;;;;37.92;22.27;;;16.50;70.30;;;18.31;36.78;99762.47;5055436;28;20045;-72
2022/12/17 19:43:41;;;;;;;37.25;23.17;;;16.50;70.20;;;18.32;37.14;99762.19;5018712;28;20040;-70
2022/12/17 19:46:17;;;;;;;38.35;23.42;;;16.40;70.80;;;18.34;37.66;99765.44;5038115;28;20048;-70
2022/12/17 19:48:45;;;;;;;35.65;22.08;;;16.40;71.10;;;18.30;37.53;99760.84;5049386;28;20041;-70
2022/12/17 19:51:13;;;;;;;36.05;22.45;;;16.40;71.10;;;18.32;37.40;99770.44;5019827;28;20701;-70
2022/12/17 19:53:40;;;;;;;36.45;22.83;;;16.60;70.40;;;18.31;37.50;99770.72;5050283;28;20090;-70
2022/12/17 19:56:23;;;;;;;39.58;22.33;;;16.60;70.70;;;18.31;37.51;99781.69;5020791;28;20040;-70
2022/12/17 19:58:52;;;;;;;37.78;23.63;;;16.50;70.80;;;18.31;37.20;99781.69;5026174;28;20045;-71
2022/12/17 20:01:30;;;;;;;39.95;22.70;;;16.50;70.60;;;18.30;37.60;99794.63;5038287;28;20487;-71
2022/12/17 20:03:56;;;;;;;39.08;22.23;;;16.40;70.70;;;18.26;37.83;99796.31;5023612;28;20044;-71
2022/12/17 20:06:29;;;;;;;41.72;22.55;;;16.40;71.40;;;18.33;37.69;99802.25;5040496;28;20583;-71
2022/12/17 20:09:03;;;;;;;38.88;22.00;;;16.40;71.50;;;18.31;37.79;99801.72;5020407;28;20122;-71
2022/12/17 20:11:35;;;;;;;33.00;20.10;;;16.50;71.10;;;18.32;37.69;99797.06;5012660;28;20086;-71
2022/12/17 20:14:10;;;;;;;34.95;20.58;;;16.50;71.00;;;18.30;37.68;99813.03;5034843;28;20530;-71
2022/12/17 20:16:39;;;;;;;31.05;20.05;;;16.40;70.90;;;18.23;37.50;99816.16;5067695;28;20127;-71
2022/12/17 20:19:12;;;;;;;34.58;20.95;;;16.50;70.90;;;18.27;38.04;99814.47;5034731;28;20198;-71
2022/12/17 20:21:41;;;;;;;34.92;21.35;;;16.40;71.40;;;18.27;38.11;99819.94;5041388;28;20476;-71
2022/12/17 20:24:13;;;;;;;38.08;22.63;;;16.40;71.80;;;18.27;37.84;99825.44;5018876;28;20098;-71
2022/12/17 20:26:41;;;;;;;33.25;21.27;;;16.40;71.70;;;18.24;37.87;99820.53;5022458;28;20036;-71
2022/12/17 20:29:08;;;;;;;32.67;19.27;;;16.40;71.40;;;18.28;37.65;99831.75;5003008;28;20166;-70
2022/12/17 20:31:34;;;;;;;38.38;21.48;;;16.30;71.20;;;18.24;37.60;99828.75;5037391;28;20386;-71
2022/12/17 20:34:05;;;;;;;37.15;21.55;;;16.30;71.10;;;18.24;37.76;99837.00;5034948;28;20472;-70
2022/12/17 20:36:31;;;;;;;34.40;19.75;;;16.30;71.30;;;18.26;38.03;99842.19;5040046;28;20463;-70
2022/12/17 20:38:57;;;;;;;33.92;21.05;;;16.30;71.70;;;18.28;37.84;99857.28;5034721;28;20044;-70
2022/12/17 20:41:26;;;;;;;32.85;20.10;;;16.40;71.80;;;18.26;37.89;99858.69;5036169;28;20103;-70
2022/12/17 20:43:52;;;;;;;33.42;21.60;;;16.40;71.20;;;18.22;37.85;99864.78;5033358;28;20045;-70
2022/12/17 20:46:19;;;;;;;34.85;20.50;;;16.50;71.10;;;18.17;37.88;99867.59;5034434;28;20071;-71
2022/12/17 20:48:48;;;;;;;35.25;19.77;;;16.40;71.00;;;18.22;37.68;99874.97;5050131;28;20469;-71
2022/12/17 20:51:20;;;;;;;34.35;19.92;;;16.40;71.10;;;18.18;38.26;99884.88;5035780;28;20064;-70
2022/12/17 20:53:51;;;;;;;34.28;21.38;;;16.40;71.90;;;18.22;38.20;99872.22;5036797;28;20124;-70
2022/12/17 20:56:20;;;;;;;48.28;22.25;;;16.40;72.00;;;18.19;38.21;99879.13;5034173;28;20041;-70
2022/12/17 20:58:46;;;;;;;34.65;18.77;;;16.30;71.80;;;18.21;37.94;99887.03;5032284;28;20156;-70
2022/12/17 21:01:17;;;;;;;38.30;22.48;;;16.30;71.60;;;18.19;37.89;99881.84;5051861;28;20660;-70
2022/12/17 21:03:44;;;;;;;35.13;19.85;;;16.40;71.70;;;18.20;38.06;99890.91;5051177;28;20041;-70
2022/12/17 21:06:26;;;;;;;38.97;20.90;;;16.40;71.60;;;18.17;38.13;99891.50;5017354;28;20460;-70
2022/12/17 21:08:53;;;;;;;38.90;20.42;;;16.40;71.50;;;18.21;38.01;99887.03;5046301;28;20149;-70
2022/12/17 21:11:24;;;;;;;36.78;20.40;;;16.40;71.80;;;18.17;38.31;99897.81;5033742;28;20126;-71
2022/12/17 21:13:51;;;;;;;36.55;19.15;;;16.40;72.00;;;18.19;38.27;99889.25;5032744;28;20045;-71
2022/12/17 21:16:23;;;;;;;31.52;18.90;;;16.30;71.90;;;18.21;37.89;99889.78;5032052;28;20052;-71
2022/12/17 21:18:53;;;;;;;28.02;18.48;;;16.30;71.50;;;18.17;38.07;99905.25;5049404;28;20098;-72
2022/12/17 21:21:25;;;;;;;33.08;19.48;;;16.30;71.40;;;18.12;38.11;99908.88;5025979;28;20108;-71
2022/12/17 21:23:52;;;;;;;35.47;20.50;;;16.30;71.30;;;18.16;38.20;99911.81;5014772;28;20515;-72
2022/12/17 21:26:25;;;;;;;41.75;19.90;;;16.30;71.90;;;18.16;38.37;99914.56;5034811;28;20048;-72
2022/12/17 21:28:53;;;;;;;35.47;19.92;;;16.30;72.00;;;18.17;38.00;99924.47;5033522;28;20110;-72
2022/12/17 21:31:26;;;;;;;38.17;19.27;;;16.30;71.70;;;18.16;38.31;99918.13;5033805;28;20120;-72
2022/12/17 21:33:56;;;;;;;29.75;19.30;;;16.30;71.60;;;18.13;37.88;99924.22;5033657;28;20090;-72
2022/12/17 21:36:22;;;;;;;33.72;19.25;;;16.30;71.50;;;18.15;37.76;99926.69;5050734;28;20507;-72
2022/12/17 21:38:51;;;;;;;34.15;19.73;;;16.30;71.30;;;18.11;38.12;99936.63;5049010;28;20044;-72
2022/12/17 21:41:38;;;;;;;42.17;19.80;;;16.30;71.50;;;18.12;38.30;99939.06;5017580;28;20067;-72
2022/12/17 21:44:06;;;;;;;32.13;18.92;;;16.30;71.90;;;18.17;38.21;99940.94;5050849;28;20498;-72
2022/12/17 21:46:32;;;;;;;35.80;19.73;;;16.20;72.20;;;18.13;38.00;99937.94;5051595;28;20722;-73
2022/12/17 21:49:01;;;;;;;32.58;20.55;;;16.20;71.70;;;18.10;38.26;99941.28;5034768;28;20064;-71
2022/12/17 21:51:28;;;;;;;35.70;21.42;;;16.30;71.70;;;18.12;37.89;99943.75;5019965;28;20040;-72
2022/12/17 21:53:56;;;;;;;34.17;19.67;;;16.30;71.50;;;18.10;38.05;99937.72;5022942;28;20113;-72
2022/12/17 21:56:22;;;;;;;32.83;19.38;;;16.30;71.60;;;18.08;37.99;99946.25;5038521;28;20041;-72
2022/12/17 21:58:48;;;;;;;32.38;19.48;;;16.20;71.90;;;18.07;38.52;99946.56;5018136;28;20174;-71
2022/12/17 22:01:20;;;;;;;33.63;19.08;;;16.30;72.30;;;18.05;38.39;99952.34;5054143;28;20046;-71
2022/12/17 22:03:49;;;;;;;26.50;17.50;;;16.20;72.00;;;18.09;38.07;99955.31;5023839;28;20036;-71
2022/12/17 22:06:16;;;;;;;28.95;17.83;;;16.20;71.60;;;18.06;38.28;99958.66;5055491;28;20105;-71
2022/12/17 22:08:42;;;;;;;28.30;18.20;;;16.20;71.70;;;18.07;37.78;99971.28;5037337;28;20149;-72
2022/12/17 22:11:17;;;;;;;29.25;18.92;;;16.30;71.30;;;18.04;38.37;99969.94;5067895;28;20051;-71
2022/12/17 22:14:02;;;;;;;34.15;19.58;;;16.20;71.80;;;18.05;38.49;99977.06;5054126;28;20050;-72
2022/12/17 22:16:37;;;;;;;32.10;17.95;;;16.10;72.30;;;18.04;38.52;99980.09;5029846;28;20634;-71
2022/12/17 22:19:05;;;;;;;31.23;19.38;;;16.20;72.40;;;18.00;38.28;99982.63;5047102;28;20040;-71
2022/12/17 22:21:37;;;;;;;33.80;18.85;;;16.20;71.90;;;18.01;38.28;99989.72;5058252;28;20111;-71
2022/12/17 22:24:03;;;;;;;28.92;17.08;;;16.20;71.70;;;18.03;38.21;99995.75;5040275;28;20042;-71
2022/12/17 22:26:30;;;;;;;30.67;17.85;;;16.20;71.60;;;18.04;38.35;99988.31;5042132;28;20701;-71
2022/12/17 22:28:56;;;;;;;32.95;18.38;;;16.20;71.60;;;18.02;38.56;99982.31;5060624;28;20063;-71
2022/12/17 22:34:09;;;;;;;32.47;18.33;;;16.20;72.20;;;17.99;38.46;99987.28;5044955;28;20041;-71
2022/12/17 22:36:35;;;;;;;30.98;18.30;;;16.20;72.00;;;18.00;38.42;99990.84;5041411;28;20050;-71
2022/12/17 22:39:03;;;;;;;28.88;17.60;;;16.30;71.90;;;17.98;38.40;99991.13;5038390;28;20044;-71
2022/12/17 22:44:16;;;;;;;34.58;19.17;;;16.20;71.60;;;17.97;38.66;99995.00;5059223;28;20033;-72
2022/12/17 22:46:42;;;;;;;29.38;17.35;;;16.20;72.20;;;17.98;38.58;99993.88;5068059;28;20037;-72
2022/12/17 22:49:08;;;;;;;30.20;17.33;;;16.20;72.40;;;17.98;38.66;99995.81;5023468;28;20047;-71
2022/12/17 22:51:34;;;;;;;29.02;17.98;;;16.20;72.50;;;17.94;38.35;99997.53;5036538;28;20043;-71
2022/12/17 22:54:03;;;;;;;27.27;16.83;;;16.20;71.90;;;17.99;38.18;100008.44;5020307;28;20063;-71
2022/12/17 22:56:29;;;;;;;34.20;18.67;;;16.20;71.60;;;17.91;38.46;100001.66;5034575;28;20051;-71
2022/12/17 22:58:55;;;;;;;27.35;18.20;;;16.30;71.70;;;17.93;38.45;100010.41;5027997;28;20059;-71
2022/12/17 23:01:21;;;;;;;28.80;19.17;;;16.30;71.30;;;17.96;38.65;100009.84;5036923;28;20040;-72
2022/12/17 23:03:48;;;;;;;25.70;16.02;;;16.30;71.70;;;17.97;38.60;100018.88;5054945;28;20036;-72
2022/12/17 23:06:17;;;;;;;34.10;18.63;;;16.30;72.00;;;17.90;38.67;100019.22;5057128;28;20171;-72
2022/12/17 23:08:43;;;;;;;32.75;18.65;;;16.30;71.80;;;17.85;38.54;100021.22;5055464;28;20051;-72
2022/12/17 23:11:30;;;;;;;30.73;17.48;;;16.20;71.60;;;17.92;38.44;100030.75;5030003;28;20532;-71
2022/12/17 23:13:56;;;;;;;29.10;17.13;;;16.20;71.60;;;17.93;38.40;100034.31;5056833;28;20447;-72
2022/12/17 23:16:22;;;;;;;28.92;17.38;;;16.20;71.60;;;17.91;38.36;100042.84;5037385;28;20575;-72
2022/12/17 23:18:49;;;;;;;30.23;16.63;;;16.20;71.90;;;17.91;38.81;100028.28;5023995;28;20040;-72
2022/12/17 23:21:19;;;;;;;24.13;16.70;;;16.10;72.20;;;17.90;38.47;100046.69;5037020;28;20044;-72
2022/12/17 23:23:45;;;;;;;24.48;15.18;;;16.20;72.30;;;17.92;38.29;100047.22;5054731;28;20051;-72
2022/12/17 23:26:23;;;;;;;25.08;16.83;;;16.10;71.80;;;17.91;38.34;100042.84;5068393;28;20606;-72
2022/12/17 23:28:58;;;;;;;30.40;17.75;;;16.10;71.90;;;17.86;38.42;100042.91;5040049;28;20032;-72
2022/12/17 23:31:31;;;;;;;25.45;14.93;;;16.10;71.90;;;17.88;38.31;100042.59;5037638;28;20033;-72
2022/12/17 23:33:57;;;;;;;25.33;16.20;;;16.20;71.60;;;17.87;38.70;100046.47;5041053;28;20045;-72
2022/12/17 23:36:23;;;;;;;24.70;15.68;;;16.20;72.10;;;17.83;38.99;100046.22;5039259;28;20037;-72
2022/12/17 23:38:50;;;;;;;24.25;15.65;;;16.20;72.30;;;17.82;38.48;100047.31;5025466;28;20036;-72
2022/12/17 23:41:19;;;;;;;26.40;15.23;;;16.10;71.90;;;17.81;38.04;100064.91;5001458;28;20033;-72